Time,TemperatureF,DewpointF,PressureIn,WindDirection,WindDirectionDegrees,WindSpeedMPH,WindSpeedGustMPH,Humidity,HourlyPrecipIn,Conditions,Clouds,dailyrainin,SoftwareType,DateUTC
2013-03-14 00:00:00,23.4,13.7,30.04,WSW,248,0.0,0.0,66,0.00,,,0.09,WUHU216HW,2013-03-14 04:00:00,
2013-03-14 00:05:00,23.4,14.1,30.05,WNW,293,0.0,0.0,67,0.00,,,0.00,WUHU216HW,2013-03-14 04:05:00,
2013-03-14 00:10:00,23.4,13.7,30.05,WNW,293,0.0,0.0,66,0.00,,,0.00,WUHU216HW,2013-03-14 04:10:00,
2013-03-14 00:15:00,23.4,13.3,30.05,NW,315,0.0,0.0,65,0.00,,,0.00,WUHU216HW,2013-03-14 04:15:00,
2013-03-14 00:20:00,23.2,13.2,30.06,NW,315,0.0,0.0,65,0.00,,,0.00,WUHU216HW,2013-03-14 04:20:00,
2013-03-14 00:25:00,23.0,13.0,30.06,West,270,0.0,0.0,65,0.00,,,0.00,WUHU216HW,2013-03-14 04:25:00,
2013-03-14 00:30:00,23.2,13.2,30.06,NW,315,0.0,0.0,65,0.00,,,0.00,WUHU216HW,2013-03-14 04:30:00,
2013-03-14 00:35:00,23.0,13.0,30.06,WNW,293,0.0,0.0,65,0.00,,,0.00,WUHU216HW,2013-03-14 04:35:00,
2013-03-14 00:40:00,23.0,13.0,30.06,NE,45,0.0,0.0,65,0.00,,,0.00,WUHU216HW,2013-03-14 04:40:00,
2013-03-14 00:45:00,23.0,13.0,30.06,NNW,338,0.0,0.0,65,0.00,,,0.00,WUHU216HW,2013-03-14 04:45:00,
2013-03-14 00:50:00,23.0,13.0,30.06,West,270,0.0,0.0,65,0.00,,,0.00,WUHU216HW,2013-03-14 04:50:00,
2013-03-14 00:55:00,23.0,13.0,30.05,WNW,293,0.0,0.0,65,0.00,,,0.00,WUHU216HW,2013-03-14 04:55:00,
2013-03-14 01:00:00,23.0,12.6,30.06,NW,315,0.0,0.0,64,0.00,,,0.00,WUHU216HW,2013-03-14 05:00:00,
2013-03-14 01:05:00,23.0,13.0,30.06,NE,45,0.0,0.0,65,0.00,,,0.00,WUHU216HW,2013-03-14 05:05:00,
2013-03-14 01:10:00,23.0,13.0,30.06,North,0,0.0,0.0,65,0.00,,,0.00,WUHU216HW,2013-03-14 05:10:00,
2013-03-14 01:15:00,23.0,13.0,30.06,NNW,338,0.0,0.0,65,0.00,,,0.00,WUHU216HW,2013-03-14 05:15:00,
2013-03-14 01:20:00,23.0,13.3,30.06,NE,45,0.0,0.0,66,0.00,,,0.00,WUHU216HW,2013-03-14 05:20:00,
2013-03-14 01:25:00,22.9,13.1,30.06,NW,315,0.0,0.0,66,0.00,,,0.00,WUHU216HW,2013-03-14 05:25:00,
2013-03-14 01:30:00,22.9,13.1,30.06,WNW,293,0.0,0.0,66,0.00,,,0.00,WUHU216HW,2013-03-14 05:30:00,
2013-03-14 01:35:00,22.7,13.0,30.06,North,0,0.0,0.0,66,0.00,,,0.00,WUHU216HW,2013-03-14 05:35:00,
2013-03-14 01:40:00,22.9,13.5,30.06,WNW,293,0.0,0.0,67,0.00,,,0.00,WUHU216HW,2013-03-14 05:40:00,
2013-03-14 01:45:00,22.7,13.7,30.06,WNW,293,0.0,0.0,68,0.00,,,0.00,WUHU216HW,2013-03-14 05:45:00,
2013-03-14 01:50:00,22.9,13.9,30.06,NW,315,0.0,0.0,68,0.00,,,0.00,WUHU216HW,2013-03-14 05:50:00,
2013-03-14 01:55:00,22.9,14.2,30.06,NW,315,0.0,0.0,69,0.00,,,0.00,WUHU216HW,2013-03-14 05:55:00,
2013-03-14 02:00:00,22.9,14.2,30.06,NW,315,0.0,0.0,69,0.00,,,0.00,WUHU216HW,2013-03-14 06:00:00,
2013-03-14 02:05:00,22.9,14.2,30.06,WNW,293,0.0,0.0,69,0.00,,,0.00,WUHU216HW,2013-03-14 06:05:00,
2013-03-14 02:10:00,23.0,14.4,30.07,SSW,203,0.0,0.0,69,0.00,,,0.00,WUHU216HW,2013-03-14 06:10:00,
2013-03-14 02:15:00,23.0,14.4,30.07,WNW,293,0.0,0.0,69,0.00,,,0.00,WUHU216HW,2013-03-14 06:15:00,
2013-03-14 02:21:00,23.0,14.4,30.07,NNW,338,0.0,0.0,69,0.00,,,0.00,WUHU216HW,2013-03-14 06:21:00,
2013-03-14 02:26:00,23.0,14.4,30.07,WNW,293,0.0,0.0,69,0.00,,,0.00,WUHU216HW,2013-03-14 06:26:00,
2013-03-14 02:31:00,23.0,14.8,30.07,North,0,0.0,0.0,70,0.00,,,0.00,WUHU216HW,2013-03-14 06:31:00,
2013-03-14 02:36:00,23.0,14.8,30.07,NW,315,0.0,0.0,70,0.00,,,0.00,WUHU216HW,2013-03-14 06:36:00,
2013-03-14 02:41:00,22.9,14.9,30.07,NW,315,0.0,0.0,71,0.00,,,0.00,WUHU216HW,2013-03-14 06:41:00,
2013-03-14 02:47:00,22.9,14.9,30.07,NW,315,0.0,0.0,71,0.00,,,0.00,WUHU216HW,2013-03-14 06:47:00,
2013-03-14 02:52:00,22.9,14.9,30.07,NW,315,0.0,0.0,71,0.00,,,0.00,WUHU216HW,2013-03-14 06:52:00,
2013-03-14 02:57:00,23.0,14.4,30.07,NNW,338,0.0,0.0,69,0.00,,,0.00,WUHU216HW,2013-03-14 06:57:00,
2013-03-14 03:03:00,22.9,14.9,30.07,NW,315,0.0,0.0,71,0.00,,,0.00,WUHU216HW,2013-03-14 07:03:00,
2013-03-14 03:08:00,22.9,14.6,30.07,WNW,293,0.0,0.0,70,0.00,,,0.00,WUHU216HW,2013-03-14 07:08:00,
2013-03-14 03:13:00,22.7,14.7,30.07,NNW,338,0.0,0.0,71,0.00,,,0.00,WUHU216HW,2013-03-14 07:13:00,
2013-03-14 03:18:00,22.7,15.3,30.07,NNE,23,0.0,0.0,73,0.00,,,0.00,WUHU216HW,2013-03-14 07:18:00,
2013-03-14 03:23:00,22.7,15.3,30.07,NNW,338,0.0,0.0,73,0.00,,,0.00,WUHU216HW,2013-03-14 07:23:00,
2013-03-14 03:28:00,22.7,15.9,30.07,North,0,0.0,0.0,75,0.00,,,0.00,WUHU216HW,2013-03-14 07:28:00,
2013-03-14 03:33:00,22.7,16.2,30.07,NW,315,0.0,0.0,76,0.00,,,0.00,WUHU216HW,2013-03-14 07:33:00,
2013-03-14 03:38:00,22.3,16.2,30.08,WNW,293,0.0,0.0,77,0.00,,,0.00,WUHU216HW,2013-03-14 07:38:00,
2013-03-14 03:43:00,22.1,16.0,30.08,NNE,23,0.0,0.0,77,0.00,,,0.00,WUHU216HW,2013-03-14 07:43:00,
2013-03-14 03:48:00,22.1,15.7,30.08,NW,315,0.0,0.0,76,0.00,,,0.00,WUHU216HW,2013-03-14 07:48:00,
2013-03-14 03:54:00,22.1,16.0,30.08,NNW,338,0.0,0.0,77,0.00,,,0.00,WUHU216HW,2013-03-14 07:54:00,
2013-03-14 03:59:00,22.0,15.9,30.08,NW,315,0.0,0.0,77,0.00,,,0.00,WUHU216HW,2013-03-14 07:59:00,
2013-03-14 04:04:00,22.0,15.9,30.08,NNW,338,0.0,0.0,77,0.00,,,0.00,WUHU216HW,2013-03-14 08:04:00,
2013-03-14 04:09:00,22.0,16.1,30.08,NNW,338,0.0,0.0,78,0.00,,,0.00,WUHU216HW,2013-03-14 08:09:00,
2013-03-14 04:14:00,22.0,15.9,30.08,NNW,338,0.0,0.0,77,0.00,,,0.00,WUHU216HW,2013-03-14 08:14:00,
2013-03-14 04:20:00,22.0,16.1,30.08,NNW,338,0.0,0.0,78,0.00,,,0.00,WUHU216HW,2013-03-14 08:20:00,
2013-03-14 04:25:00,22.0,16.1,30.08,NW,315,0.0,0.0,78,0.00,,,0.00,WUHU216HW,2013-03-14 08:25:00,
2013-03-14 04:30:00,22.0,16.1,30.08,NW,315,0.0,0.0,78,0.00,,,0.00,WUHU216HW,2013-03-14 08:30:00,
2013-03-14 04:34:00,22.0,16.1,30.08,NNW,338,0.0,0.0,78,0.00,,,0.00,WUHU216HW,2013-03-14 08:34:00,
2013-03-14 04:39:00,22.0,16.1,30.08,NNW,338,0.0,0.0,78,0.00,,,0.00,WUHU216HW,2013-03-14 08:39:00,
2013-03-14 04:44:00,22.1,16.3,30.09,NNE,23,0.0,0.0,78,0.00,,,0.00,WUHU216HW,2013-03-14 08:44:00,
2013-03-14 04:49:00,22.0,16.1,30.08,NNE,23,0.0,0.0,78,0.00,,,0.00,WUHU216HW,2013-03-14 08:49:00,
2013-03-14 04:54:00,22.1,16.3,30.08,NNE,23,0.0,0.0,78,0.00,,,0.00,WUHU216HW,2013-03-14 08:54:00,
2013-03-14 04:59:00,22.1,16.3,30.08,NNE,23,0.0,0.0,78,0.00,,,0.00,WUHU216HW,2013-03-14 08:59:00,
2013-03-14 05:04:00,22.1,16.3,30.09,NNE,23,0.0,0.0,78,0.00,,,0.00,WUHU216HW,2013-03-14 09:04:00,
2013-03-14 05:09:00,22.3,16.5,30.08,West,270,0.0,0.0,78,0.00,,,0.00,WUHU216HW,2013-03-14 09:09:00,
2013-03-14 05:14:00,22.5,16.7,30.09,NW,315,0.0,0.0,78,0.00,,,0.00,WUHU216HW,2013-03-14 09:14:00,
2013-03-14 05:19:00,22.5,16.4,30.09,NW,315,0.0,0.0,77,0.00,,,0.00,WUHU216HW,2013-03-14 09:19:00,
2013-03-14 05:24:00,22.5,16.7,30.09,NW,315,0.0,0.0,78,0.00,,,0.00,WUHU216HW,2013-03-14 09:24:00,
2013-03-14 05:29:00,22.5,16.7,30.09,NW,315,0.0,0.0,78,0.00,,,0.00,WUHU216HW,2013-03-14 09:29:00,
2013-03-14 05:34:00,22.5,16.7,30.09,NW,315,0.0,0.0,78,0.00,,,0.00,WUHU216HW,2013-03-14 09:34:00,
2013-03-14 05:39:00,22.5,16.7,30.09,West,270,0.0,0.0,78,0.00,,,0.00,WUHU216HW,2013-03-14 09:39:00,
2013-03-14 05:44:00,22.3,16.5,30.09,NW,315,0.0,0.0,78,0.00,,,0.00,WUHU216HW,2013-03-14 09:44:00,
2013-03-14 05:49:00,22.1,16.3,30.09,WNW,293,0.0,0.0,78,0.00,,,0.00,WUHU216HW,2013-03-14 09:49:00,
2013-03-14 05:54:00,22.1,16.3,30.09,NNW,338,0.0,0.0,78,0.00,,,0.00,WUHU216HW,2013-03-14 09:54:00,
2013-03-14 05:58:00,22.1,16.0,30.09,NW,315,0.0,0.0,77,0.00,,,0.00,WUHU216HW,2013-03-14 09:58:00,
2013-03-14 06:03:00,22.1,16.0,30.09,West,270,0.0,0.0,77,0.00,,,0.00,WUHU216HW,2013-03-14 10:03:00,
2013-03-14 06:08:00,22.3,16.2,30.09,WNW,293,0.0,0.0,77,0.00,,,0.00,WUHU216HW,2013-03-14 10:08:00,
2013-03-14 06:13:00,22.3,15.8,30.09,West,270,0.0,0.0,76,0.00,,,0.00,WUHU216HW,2013-03-14 10:13:00,
2013-03-14 06:18:00,22.7,15.3,30.09,WNW,293,0.0,0.0,73,0.00,,,0.00,WUHU216HW,2013-03-14 10:18:00,
2013-03-14 06:23:00,22.7,14.7,30.09,WNW,293,0.0,0.0,71,0.00,,,0.00,WUHU216HW,2013-03-14 10:23:00,
2013-03-14 06:28:00,23.0,14.4,30.09,NNW,338,0.0,0.0,69,0.00,,,0.00,WUHU216HW,2013-03-14 10:28:00,
2013-03-14 06:33:00,23.0,14.4,30.09,WNW,293,0.0,0.0,69,0.00,,,0.00,WUHU216HW,2013-03-14 10:33:00,
2013-03-14 06:38:00,23.0,14.0,30.10,WSW,248,0.0,0.0,68,0.00,,,0.00,WUHU216HW,2013-03-14 10:38:00,
2013-03-14 06:43:00,23.0,14.4,30.10,West,270,0.0,0.0,69,0.00,,,0.00,WUHU216HW,2013-03-14 10:43:00,
2013-03-14 06:48:00,23.0,14.4,30.10,West,270,0.0,0.0,69,0.00,,,0.00,WUHU216HW,2013-03-14 10:48:00,
2013-03-14 06:53:00,23.0,13.7,30.10,WNW,293,0.0,0.0,67,0.00,,,0.00,WUHU216HW,2013-03-14 10:53:00,
2013-03-14 06:58:00,23.0,14.0,30.11,WNW,293,0.0,0.0,68,0.00,,,0.00,WUHU216HW,2013-03-14 10:58:00,
2013-03-14 07:03:00,23.0,13.7,30.11,WNW,293,0.0,0.0,67,0.00,,,0.00,WUHU216HW,2013-03-14 11:03:00,
2013-03-14 07:08:00,23.0,13.7,30.11,WNW,293,0.0,0.0,67,0.00,,,0.00,WUHU216HW,2013-03-14 11:08:00,
2013-03-14 07:13:00,23.2,13.9,30.11,West,270,0.0,0.0,67,0.00,,,0.00,WUHU216HW,2013-03-14 11:13:00,
2013-03-14 07:18:00,23.0,14.0,30.11,WNW,293,0.0,0.0,68,0.00,,,0.00,WUHU216HW,2013-03-14 11:18:00,
2013-03-14 07:23:00,23.2,13.9,30.12,West,270,0.0,0.0,67,0.00,,,0.00,WUHU216HW,2013-03-14 11:23:00,
2013-03-14 07:28:00,23.4,14.1,30.12,West,270,0.0,0.0,67,0.00,,,0.00,WUHU216HW,2013-03-14 11:28:00,
2013-03-14 07:33:00,23.4,14.4,30.12,NW,315,0.0,0.0,68,0.00,,,0.00,WUHU216HW,2013-03-14 11:33:00,
2013-03-14 07:38:00,23.4,14.4,30.12,West,270,0.0,0.0,68,0.00,,,0.00,WUHU216HW,2013-03-14 11:38:00,
2013-03-14 07:43:00,23.6,14.6,30.12,WSW,248,0.0,0.0,68,0.00,,,0.00,WUHU216HW,2013-03-14 11:43:00,
2013-03-14 07:48:00,23.8,14.7,30.12,WSW,248,0.0,0.0,68,0.00,,,0.00,WUHU216HW,2013-03-14 11:48:00,
2013-03-14 07:54:00,23.8,14.7,30.12,NW,315,0.0,0.0,68,0.00,,,0.00,WUHU216HW,2013-03-14 11:54:00,
2013-03-14 07:59:00,23.8,14.7,30.13,WNW,293,0.0,0.0,68,0.00,,,0.00,WUHU216HW,2013-03-14 11:59:00,
2013-03-14 08:04:00,23.8,14.3,30.13,NE,45,0.0,0.0,67,0.00,,,0.00,WUHU216HW,2013-03-14 12:04:00,
2013-03-14 08:09:00,23.9,14.9,30.13,WNW,293,0.0,0.0,68,0.00,,,0.00,WUHU216HW,2013-03-14 12:09:00,
2013-03-14 08:14:00,23.9,14.9,30.13,WNW,293,0.0,0.0,68,0.00,,,0.00,WUHU216HW,2013-03-14 12:14:00,
2013-03-14 08:19:00,24.1,14.7,30.13,NNE,23,0.0,0.0,67,0.00,,,0.00,WUHU216HW,2013-03-14 12:19:00,
2013-03-14 08:24:00,23.9,14.5,30.13,WSW,248,0.0,0.0,67,0.00,,,0.00,WUHU216HW,2013-03-14 12:24:00,
2013-03-14 08:29:00,24.1,14.7,30.13,West,270,0.0,0.0,67,0.00,,,0.00,WUHU216HW,2013-03-14 12:29:00,
2013-03-14 08:34:00,24.1,14.3,30.13,WNW,293,0.0,0.0,66,0.00,,,0.00,WUHU216HW,2013-03-14 12:34:00,
2013-03-14 08:39:00,24.1,14.3,30.13,West,270,0.0,0.0,66,0.00,,,0.00,WUHU216HW,2013-03-14 12:39:00,
2013-03-14 08:44:00,24.1,14.3,30.13,West,270,0.0,0.0,66,0.00,,,0.00,WUHU216HW,2013-03-14 12:44:00,
2013-03-14 08:49:00,24.5,14.3,30.13,West,270,0.0,0.0,65,0.00,,,0.00,WUHU216HW,2013-03-14 12:49:00,
2013-03-14 08:54:00,24.7,14.9,30.13,West,270,0.0,0.0,66,0.00,,,0.00,WUHU216HW,2013-03-14 12:54:00,
2013-03-14 08:59:00,24.8,14.7,30.14,West,270,0.0,0.0,65,0.00,,,0.00,WUHU216HW,2013-03-14 12:59:00,
2013-03-14 09:03:00,25.2,14.7,30.14,West,270,0.0,0.0,64,0.00,,,0.00,WUHU216HW,2013-03-14 13:03:00,
2013-03-14 09:09:00,25.4,14.9,30.14,WSW,248,0.0,0.0,64,0.00,,,0.00,WUHU216HW,2013-03-14 13:09:00,
2013-03-14 09:14:00,25.6,14.7,30.14,West,270,0.0,0.0,63,0.00,,,0.00,WUHU216HW,2013-03-14 13:14:00,
2013-03-14 09:19:00,25.7,14.5,30.14,WNW,293,0.0,0.0,62,0.00,,,0.00,WUHU216HW,2013-03-14 13:19:00,
2013-03-14 09:24:00,26.1,14.8,30.14,WNW,293,0.0,0.0,62,0.00,,,0.00,WUHU216HW,2013-03-14 13:24:00,
2013-03-14 09:29:00,26.3,14.6,30.14,West,270,0.0,0.0,61,0.00,,,0.00,WUHU216HW,2013-03-14 13:29:00,
2013-03-14 09:34:00,26.3,14.6,30.14,West,270,0.0,0.0,61,0.00,,,0.00,WUHU216HW,2013-03-14 13:34:00,
2013-03-14 09:39:00,26.6,15.3,30.14,West,270,0.0,0.0,62,0.00,,,0.00,WUHU216HW,2013-03-14 13:39:00,
2013-03-14 09:44:00,27.0,15.3,30.14,West,270,0.0,0.0,61,0.00,,,0.00,WUHU216HW,2013-03-14 13:44:00,
2013-03-14 09:49:00,27.2,14.7,30.14,West,270,0.0,0.0,59,0.00,,,0.00,WUHU216HW,2013-03-14 13:49:00,
2013-03-14 09:54:00,27.4,14.5,30.14,WSW,248,0.0,0.0,58,0.00,,,0.00,WUHU216HW,2013-03-14 13:54:00,
2013-03-14 09:59:00,27.2,13.5,30.14,SSW,203,0.0,0.0,56,0.00,,,0.00,WUHU216HW,2013-03-14 13:59:00,
2013-03-14 10:04:00,27.2,12.6,30.14,West,270,0.0,0.0,54,0.00,,,0.00,WUHU216HW,2013-03-14 14:04:00,
2013-03-14 10:09:00,27.4,12.8,30.14,NW,315,0.0,0.0,54,0.00,,,0.00,WUHU216HW,2013-03-14 14:09:00,
2013-03-14 10:14:00,27.4,13.2,30.14,NW,315,0.0,0.0,55,0.00,,,0.00,WUHU216HW,2013-03-14 14:14:00,
2013-03-14 10:19:00,27.9,14.6,30.14,West,270,0.0,0.0,57,0.00,,,0.00,WUHU216HW,2013-03-14 14:19:00,
2013-03-14 10:24:00,27.9,14.2,30.14,NNW,338,0.0,0.0,56,0.00,,,0.00,WUHU216HW,2013-03-14 14:24:00,
2013-03-14 10:29:00,28.1,14.8,30.14,West,270,0.0,0.0,57,0.00,,,0.00,WUHU216HW,2013-03-14 14:29:00,
2013-03-14 10:34:00,28.3,14.1,30.14,SW,225,0.0,0.0,55,0.00,,,0.00,WUHU216HW,2013-03-14 14:34:00,
2013-03-14 10:39:00,28.4,14.8,30.14,WSW,248,0.0,0.0,56,0.00,,,0.00,WUHU216HW,2013-03-14 14:39:00,
2013-03-14 10:44:00,28.3,14.1,30.14,WSW,248,0.0,0.0,55,0.00,,,0.00,WUHU216HW,2013-03-14 14:44:00,
2013-03-14 10:49:00,28.4,14.3,30.14,WNW,293,0.0,0.0,55,0.00,,,0.00,WUHU216HW,2013-03-14 14:49:00,
2013-03-14 10:54:00,28.1,13.5,30.13,SSW,203,0.0,0.0,54,0.00,,,0.00,WUHU216HW,2013-03-14 14:54:00,
2013-03-14 10:59:00,28.4,14.8,30.13,WNW,293,0.0,0.0,56,0.00,,,0.00,WUHU216HW,2013-03-14 14:59:00,
2013-03-14 11:04:00,29.0,15.2,30.13,West,270,0.0,0.0,56,0.00,,,0.00,WUHU216HW,2013-03-14 15:04:00,
2013-03-14 11:09:00,29.3,14.3,30.14,WSW,248,0.0,0.0,53,0.00,,,0.00,WUHU216HW,2013-03-14 15:09:00,
2013-03-14 11:14:00,29.3,13.9,30.14,NW,315,0.0,0.0,52,0.00,,,0.00,WUHU216HW,2013-03-14 15:14:00,
2013-03-14 11:19:00,29.5,14.5,30.14,West,270,0.0,0.0,53,0.00,,,0.00,WUHU216HW,2013-03-14 15:19:00,
2013-03-14 11:24:00,29.5,14.0,30.14,WSW,248,0.0,0.0,52,0.00,,,0.00,WUHU216HW,2013-03-14 15:24:00,
2013-03-14 11:29:00,29.5,14.0,30.13,WNW,293,0.0,0.0,52,0.00,,,0.00,WUHU216HW,2013-03-14 15:29:00,
2013-03-14 11:34:00,29.9,14.4,30.14,WNW,293,0.0,0.0,52,0.00,,,0.00,WUHU216HW,2013-03-14 15:34:00,
2013-03-14 11:39:00,30.2,14.7,30.14,WNW,293,0.0,0.0,52,0.00,,,0.00,WUHU216HW,2013-03-14 15:39:00,
2013-03-14 11:44:00,30.6,15.0,30.13,WSW,248,0.0,0.0,52,0.00,,,0.00,WUHU216HW,2013-03-14 15:44:00,
2013-03-14 11:49:00,30.6,13.7,30.13,West,270,0.0,0.0,49,0.00,,,0.00,WUHU216HW,2013-03-14 15:49:00,
2013-03-14 11:54:00,30.4,13.5,30.13,WSW,248,0.0,0.0,49,0.00,,,0.00,WUHU216HW,2013-03-14 15:54:00,
2013-03-14 11:59:00,30.6,12.2,30.13,NW,315,0.0,0.0,46,0.00,,,0.00,WUHU216HW,2013-03-14 15:59:00,
2013-03-14 12:04:00,30.6,12.2,30.13,West,270,0.0,0.0,46,0.00,,,0.00,WUHU216HW,2013-03-14 16:04:00,
2013-03-14 12:09:00,30.6,10.6,30.13,West,270,0.0,0.0,43,0.00,,,0.00,WUHU216HW,2013-03-14 16:09:00,
2013-03-14 12:14:00,31.0,12.5,30.13,WSW,248,0.0,0.0,46,0.00,,,0.00,WUHU216HW,2013-03-14 16:14:00,
2013-03-14 12:19:00,31.1,12.2,30.14,WNW,293,0.0,0.0,45,0.00,,,0.00,WUHU216HW,2013-03-14 16:19:00,
2013-03-14 12:24:00,31.3,12.8,30.14,West,270,0.0,0.0,46,0.00,,,0.00,WUHU216HW,2013-03-14 16:24:00,
2013-03-14 12:29:00,31.9,13.3,30.13,West,270,0.0,0.0,46,0.00,,,0.00,WUHU216HW,2013-03-14 16:29:00,
2013-03-14 12:34:00,31.7,11.6,30.13,SE,135,0.0,0.0,43,0.00,,,0.00,WUHU216HW,2013-03-14 16:34:00,
2013-03-14 12:39:00,31.7,11.6,30.13,West,270,0.0,0.0,43,0.00,,,0.00,WUHU216HW,2013-03-14 16:39:00,
2013-03-14 12:44:00,32.0,12.4,30.14,SW,225,0.0,0.0,44,0.00,,,0.00,WUHU216HW,2013-03-14 16:44:00,
2013-03-14 12:49:00,32.2,12.2,30.13,WNW,293,0.0,0.0,43,0.00,,,0.00,WUHU216HW,2013-03-14 16:49:00,
2013-03-14 12:54:00,32.9,13.8,30.13,WSW,248,0.0,0.0,45,0.00,,,0.00,WUHU216HW,2013-03-14 16:54:00,
2013-03-14 12:59:00,33.1,14.0,30.13,West,270,0.0,0.0,45,0.00,,,0.00,WUHU216HW,2013-03-14 16:59:00,
2013-03-14 13:04:00,33.3,14.1,30.13,WSW,248,0.0,0.0,45,0.00,,,0.00,WUHU216HW,2013-03-14 17:04:00,
2013-03-14 13:09:00,32.9,13.2,30.13,WNW,293,0.0,0.0,44,0.00,,,0.00,WUHU216HW,2013-03-14 17:09:00,
2013-03-14 13:14:00,32.8,13.2,30.13,West,270,0.0,0.0,44,0.00,,,0.00,WUHU216HW,2013-03-14 17:14:00,
2013-03-14 13:19:00,33.1,14.4,30.13,SW,225,0.0,0.0,46,0.01,,,0.01,WUHU216HW,2013-03-14 17:19:00,
2013-03-14 13:24:00,33.5,12.8,30.13,West,270,0.0,0.0,42,0.01,,,0.01,WUHU216HW,2013-03-14 17:24:00,
2013-03-14 13:29:00,33.3,12.6,30.13,NW,315,0.0,0.0,42,0.01,,,0.01,WUHU216HW,2013-03-14 17:29:00,
2013-03-14 13:34:00,33.3,12.6,30.13,NNE,23,0.0,0.0,42,0.01,,,0.01,WUHU216HW,2013-03-14 17:34:00,
2013-03-14 13:39:00,33.3,12.6,30.13,West,270,0.0,0.0,42,0.01,,,0.01,WUHU216HW,2013-03-14 17:39:00,
2013-03-14 13:44:00,33.3,10.4,30.13,West,270,0.0,0.0,38,0.01,,,0.01,WUHU216HW,2013-03-14 17:44:00,
2013-03-14 13:49:00,33.5,12.8,30.13,West,270,0.0,0.0,42,0.01,,,0.01,WUHU216HW,2013-03-14 17:49:00,
2013-03-14 13:54:00,33.8,10.8,30.13,SSW,203,0.0,0.0,38,0.01,,,0.01,WUHU216HW,2013-03-14 17:54:00,
2013-03-14 13:59:00,33.7,10.6,30.13,SW,225,0.0,0.0,38,0.01,,,0.01,WUHU216HW,2013-03-14 17:59:00,
2013-03-14 14:04:00,33.8,11.4,30.13,NW,315,0.0,0.0,39,0.01,,,0.01,WUHU216HW,2013-03-14 18:04:00,
2013-03-14 14:09:00,34.2,11.8,30.13,NW,315,0.0,0.0,39,0.01,,,0.01,WUHU216HW,2013-03-14 18:09:00,
2013-03-14 14:14:00,34.6,12.7,30.12,WNW,293,0.0,0.0,40,0.00,,,0.01,WUHU216HW,2013-03-14 18:14:00,
2013-03-14 14:19:00,34.6,13.2,30.12,WSW,248,0.0,0.0,41,0.00,,,0.01,WUHU216HW,2013-03-14 18:19:00,
2013-03-14 14:24:00,34.7,12.9,30.12,West,270,0.0,0.0,40,0.00,,,0.01,WUHU216HW,2013-03-14 18:24:00,
2013-03-14 14:29:00,34.2,12.4,30.12,WNW,293,0.0,0.0,40,0.00,,,0.01,WUHU216HW,2013-03-14 18:29:00,
2013-03-14 14:34:00,33.8,11.4,30.12,WSW,248,0.0,0.0,39,0.00,,,0.01,WUHU216HW,2013-03-14 18:34:00,
2013-03-14 14:39:00,34.0,13.2,30.12,WNW,293,0.0,0.0,42,0.00,,,0.01,WUHU216HW,2013-03-14 18:39:00,
2013-03-14 14:44:00,34.6,14.2,30.12,West,270,0.0,0.0,43,0.00,,,0.01,WUHU216HW,2013-03-14 18:44:00,
2013-03-14 14:49:00,34.6,13.2,30.12,WNW,293,0.0,0.0,41,0.00,,,0.01,WUHU216HW,2013-03-14 18:49:00,
2013-03-14 14:54:00,34.9,14.0,30.12,South,180,0.0,0.0,42,0.00,,,0.01,WUHU216HW,2013-03-14 18:54:00,
2013-03-14 14:59:00,34.7,13.9,30.12,WSW,248,0.0,0.0,42,0.00,,,0.01,WUHU216HW,2013-03-14 18:59:00,
2013-03-14 15:04:00,34.9,13.6,30.12,ENE,68,0.0,0.0,41,0.00,,,0.01,WUHU216HW,2013-03-14 19:04:00,
2013-03-14 15:09:00,34.6,13.8,30.12,West,270,0.0,0.0,42,0.00,,,0.01,WUHU216HW,2013-03-14 19:09:00,
2013-03-14 15:14:00,34.7,13.4,30.12,WSW,248,0.0,0.0,41,0.00,,,0.01,WUHU216HW,2013-03-14 19:14:00,
2013-03-14 15:19:00,34.9,14.0,30.12,West,270,0.0,0.0,42,0.00,,,0.01,WUHU216HW,2013-03-14 19:19:00,
2013-03-14 15:24:00,35.3,14.4,30.12,West,270,0.0,0.0,42,0.00,,,0.01,WUHU216HW,2013-03-14 19:24:00,
2013-03-14 15:29:00,35.1,14.2,30.12,WSW,248,0.0,0.0,42,0.00,,,0.01,WUHU216HW,2013-03-14 19:29:00,
2013-03-14 15:34:00,34.9,14.0,30.12,West,270,0.0,0.0,42,0.00,,,0.01,WUHU216HW,2013-03-14 19:34:00,
2013-03-14 15:39:00,34.9,14.0,30.12,SSW,203,0.0,0.0,42,0.00,,,0.01,WUHU216HW,2013-03-14 19:39:00,
2013-03-14 15:44:00,35.1,14.2,30.12,West,270,0.0,0.0,42,0.00,,,0.01,WUHU216HW,2013-03-14 19:44:00,
2013-03-14 15:49:00,35.5,15.1,30.11,West,270,0.0,0.0,43,0.00,,,0.01,WUHU216HW,2013-03-14 19:49:00,
2013-03-14 15:54:00,35.6,14.2,30.11,NW,315,0.0,0.0,41,0.00,,,0.01,WUHU216HW,2013-03-14 19:54:00,
2013-03-14 15:59:00,35.6,14.2,30.11,West,270,0.0,0.0,41,0.00,,,0.01,WUHU216HW,2013-03-14 19:59:00,
2013-03-14 16:04:00,35.6,14.2,30.11,WSW,248,0.0,0.0,41,0.00,,,0.01,WUHU216HW,2013-03-14 20:04:00,
2013-03-14 16:09:00,36.0,15.6,30.11,West,270,0.0,0.0,43,0.00,,,0.01,WUHU216HW,2013-03-14 20:09:00,
2013-03-14 16:14:00,36.4,16.4,30.11,NW,315,0.0,0.0,44,0.00,,,0.01,WUHU216HW,2013-03-14 20:14:00,
2013-03-14 16:19:00,36.2,15.8,30.10,West,270,0.0,0.0,43,0.00,,,0.01,WUHU216HW,2013-03-14 20:19:00,
2013-03-14 16:24:00,36.0,15.6,30.10,WSW,248,0.0,0.0,43,0.00,,,0.01,WUHU216HW,2013-03-14 20:24:00,
2013-03-14 16:29:00,36.2,15.2,30.10,West,270,0.0,0.0,42,0.00,,,0.01,WUHU216HW,2013-03-14 20:29:00,
2013-03-14 16:34:00,35.6,14.2,30.10,WNW,293,0.0,0.0,41,0.00,,,0.01,WUHU216HW,2013-03-14 20:34:00,
2013-03-14 16:39:00,35.6,15.2,30.11,WSW,248,0.0,0.0,43,0.00,,,0.01,WUHU216HW,2013-03-14 20:39:00,
2013-03-14 16:44:00,36.2,15.8,30.10,WSW,248,0.0,0.0,43,0.00,,,0.01,WUHU216HW,2013-03-14 20:44:00,
2013-03-14 16:49:00,36.2,15.2,30.10,West,270,0.0,0.0,42,0.00,,,0.01,WUHU216HW,2013-03-14 20:49:00,
2013-03-14 16:54:00,36.4,15.4,30.10,West,270,0.0,0.0,42,0.00,,,0.01,WUHU216HW,2013-03-14 20:54:00,
2013-03-14 16:59:00,36.4,15.9,30.10,NNW,338,0.0,0.0,43,0.00,,,0.01,WUHU216HW,2013-03-14 20:59:00,
2013-03-14 17:04:00,36.2,15.2,30.10,West,270,0.0,0.0,42,0.00,,,0.01,WUHU216HW,2013-03-14 21:04:00,
2013-03-14 17:09:00,36.0,14.5,30.10,WSW,248,0.0,0.0,41,0.00,,,0.01,WUHU216HW,2013-03-14 21:09:00,
2013-03-14 17:14:00,35.8,14.9,30.11,WNW,293,0.0,0.0,42,0.00,,,0.01,WUHU216HW,2013-03-14 21:14:00,
2013-03-14 17:19:00,36.0,14.5,30.10,WSW,248,0.0,0.0,41,0.00,,,0.01,WUHU216HW,2013-03-14 21:19:00,
2013-03-14 17:24:00,35.8,14.4,30.11,WSW,248,0.0,0.0,41,0.00,,,0.01,WUHU216HW,2013-03-14 21:24:00,
2013-03-14 17:29:00,36.0,14.5,30.10,WSW,248,0.0,0.0,41,0.00,,,0.01,WUHU216HW,2013-03-14 21:29:00,
2013-03-14 17:34:00,36.0,14.5,30.10,West,270,0.0,0.0,41,0.00,,,0.01,WUHU216HW,2013-03-14 21:34:00,
2013-03-14 17:39:00,36.2,14.7,30.10,SW,225,0.0,0.0,41,0.00,,,0.01,WUHU216HW,2013-03-14 21:39:00,
2013-03-14 17:44:00,35.8,13.9,30.10,SW,225,0.0,0.0,40,0.00,,,0.01,WUHU216HW,2013-03-14 21:44:00,
2013-03-14 17:49:00,35.8,14.9,30.10,West,270,0.0,0.0,42,0.00,,,0.01,WUHU216HW,2013-03-14 21:49:00,
2013-03-14 17:54:00,35.6,13.7,30.11,WNW,293,0.0,0.0,40,0.00,,,0.01,WUHU216HW,2013-03-14 21:54:00,
2013-03-14 17:59:00,35.3,13.9,30.11,West,270,0.0,0.0,41,0.00,,,0.01,WUHU216HW,2013-03-14 21:59:00,
2013-03-14 18:04:00,34.6,13.8,30.11,West,270,0.0,0.0,42,0.00,,,0.01,WUHU216HW,2013-03-14 22:04:00,
2013-03-14 18:09:00,34.2,12.9,30.11,West,270,0.0,0.0,41,0.00,,,0.01,WUHU216HW,2013-03-14 22:09:00,
2013-03-14 18:14:00,34.0,12.7,30.11,WSW,248,0.0,0.0,41,0.00,,,0.01,WUHU216HW,2013-03-14 22:14:00,
2013-03-14 18:19:00,33.8,13.1,30.11,West,270,0.0,0.0,42,0.00,,,0.01,WUHU216HW,2013-03-14 22:19:00,
2013-03-14 18:24:00,33.8,13.1,30.11,West,270,0.0,0.0,42,0.00,,,0.01,WUHU216HW,2013-03-14 22:24:00,
2013-03-14 18:29:00,33.8,12.1,30.11,West,270,0.0,0.0,40,0.00,,,0.01,WUHU216HW,2013-03-14 22:29:00,
2013-03-14 18:34:00,33.3,12.6,30.11,West,270,0.0,0.0,42,0.00,,,0.01,WUHU216HW,2013-03-14 22:34:00,
2013-03-14 18:39:00,33.1,13.4,30.11,WSW,248,0.0,0.0,44,0.00,,,0.01,WUHU216HW,2013-03-14 22:39:00,
2013-03-14 18:44:00,32.9,13.8,30.12,NW,315,0.0,0.0,45,0.00,,,0.01,WUHU216HW,2013-03-14 22:44:00,
2013-03-14 18:49:00,32.9,14.3,30.11,WSW,248,0.0,0.0,46,0.00,,,0.01,WUHU216HW,2013-03-14 22:49:00,
2013-03-14 18:54:00,32.6,13.4,30.12,West,270,0.0,0.0,45,0.00,,,0.01,WUHU216HW,2013-03-14 22:54:00,
2013-03-14 18:59:00,31.9,13.3,30.12,West,270,0.0,0.0,46,0.00,,,0.01,WUHU216HW,2013-03-14 22:59:00,
2013-03-14 19:04:00,31.3,13.3,30.12,SW,225,0.0,0.0,47,0.00,,,0.01,WUHU216HW,2013-03-14 23:04:00,
2013-03-14 19:09:00,31.0,13.5,30.12,WNW,293,0.0,0.0,48,0.00,,,0.01,WUHU216HW,2013-03-14 23:09:00,
2013-03-14 19:14:00,30.8,13.9,30.12,SSW,203,0.0,0.0,49,0.00,,,0.01,WUHU216HW,2013-03-14 23:14:00,
2013-03-14 19:19:00,30.6,14.6,30.12,West,270,0.0,0.0,51,0.00,,,0.01,WUHU216HW,2013-03-14 23:19:00,
2013-03-14 19:24:00,30.4,14.4,30.12,West,270,0.0,0.0,51,0.00,,,0.01,WUHU216HW,2013-03-14 23:24:00,
2013-03-14 19:29:00,30.4,14.9,30.12,NW,315,0.0,0.0,52,0.00,,,0.01,WUHU216HW,2013-03-14 23:29:00,
2013-03-14 19:34:00,30.1,14.5,30.12,WSW,248,0.0,0.0,52,0.00,,,0.01,WUHU216HW,2013-03-14 23:34:00,
2013-03-14 19:39:00,29.9,14.4,30.12,West,270,0.0,0.0,52,0.00,,,0.01,WUHU216HW,2013-03-14 23:39:00,
2013-03-14 19:44:00,29.9,14.4,30.12,West,270,0.0,0.0,52,0.00,,,0.01,WUHU216HW,2013-03-14 23:44:00,
2013-03-14 19:49:00,29.7,14.6,30.12,WSW,248,0.0,0.0,53,0.00,,,0.01,WUHU216HW,2013-03-14 23:49:00,
2013-03-14 19:54:00,29.5,14.5,30.12,West,270,0.0,0.0,53,0.00,,,0.01,WUHU216HW,2013-03-14 23:54:00,
2013-03-14 19:59:00,29.3,14.7,30.12,West,270,0.0,0.0,54,0.00,,,0.01,WUHU216HW,2013-03-14 23:59:00,
2013-03-14 20:04:00,29.2,14.9,30.13,WNW,293,0.0,0.0,55,0.00,,,0.01,WUHU216HW,2013-03-15 00:04:00,
2013-03-14 20:09:00,29.2,15.4,30.12,WSW,248,0.0,0.0,56,0.00,,,0.01,WUHU216HW,2013-03-15 00:09:00,
2013-03-14 20:14:00,29.2,15.4,30.13,WSW,248,0.0,0.0,56,0.00,,,0.01,WUHU216HW,2013-03-15 00:14:00,
2013-03-14 20:19:00,29.0,15.2,30.12,WSW,248,0.0,0.0,56,0.00,,,0.01,WUHU216HW,2013-03-15 00:19:00,
2013-03-14 20:24:00,28.8,14.7,30.13,West,270,0.0,0.0,55,0.00,,,0.01,WUHU216HW,2013-03-15 00:24:00,
2013-03-14 20:29:00,28.6,14.9,30.12,SSW,203,0.0,0.0,56,0.00,,,0.01,WUHU216HW,2013-03-15 00:29:00,
2013-03-14 20:34:00,28.4,15.1,30.12,West,270,0.0,0.0,57,0.00,,,0.01,WUHU216HW,2013-03-15 00:34:00,
2013-03-14 20:39:00,28.4,15.1,30.12,WSW,248,0.0,0.0,57,0.00,,,0.01,WUHU216HW,2013-03-15 00:39:00,
2013-03-14 20:44:00,28.4,15.1,30.13,SW,225,0.0,0.0,57,0.00,,,0.01,WUHU216HW,2013-03-15 00:44:00,
2013-03-14 20:49:00,28.3,15.4,30.12,WSW,248,0.0,0.0,58,0.00,,,0.01,WUHU216HW,2013-03-15 00:49:00,
2013-03-14 20:54:00,28.3,15.4,30.12,NW,315,0.0,0.0,58,0.00,,,0.01,WUHU216HW,2013-03-15 00:54:00,
2013-03-14 20:59:00,28.1,15.2,30.12,WSW,248,0.0,0.0,58,0.00,,,0.01,WUHU216HW,2013-03-15 00:59:00,
2013-03-14 21:04:00,28.1,15.6,30.12,West,270,0.0,0.0,59,0.00,,,0.01,WUHU216HW,2013-03-15 01:04:00,
2013-03-14 21:09:00,28.1,15.6,30.12,WSW,248,0.0,0.0,59,0.00,,,0.01,WUHU216HW,2013-03-15 01:09:00,
2013-03-14 21:14:00,27.9,15.4,30.12,WNW,293,0.0,0.0,59,0.00,,,0.01,WUHU216HW,2013-03-15 01:14:00,
2013-03-14 21:19:00,27.9,15.8,30.13,WNW,293,0.0,0.0,60,0.00,,,0.01,WUHU216HW,2013-03-15 01:19:00,
2013-03-14 21:24:00,27.9,15.8,30.13,WSW,248,0.0,0.0,60,0.00,,,0.01,WUHU216HW,2013-03-15 01:24:00,
2013-03-14 21:29:00,27.7,16.0,30.12,West,270,0.0,0.0,61,0.00,,,0.01,WUHU216HW,2013-03-15 01:29:00,
2013-03-14 21:34:00,27.7,16.0,30.13,West,270,0.0,0.0,61,0.00,,,0.01,WUHU216HW,2013-03-15 01:34:00,
2013-03-14 21:39:00,27.7,16.0,30.13,WSW,248,0.0,0.0,61,0.00,,,0.01,WUHU216HW,2013-03-15 01:39:00,
2013-03-14 21:44:00,27.7,16.4,30.13,WSW,248,0.0,0.0,62,0.00,,,0.01,WUHU216HW,2013-03-15 01:44:00,
2013-03-14 21:49:00,27.5,16.2,30.13,WSW,248,0.0,0.0,62,0.00,,,0.01,WUHU216HW,2013-03-15 01:49:00,
2013-03-14 21:54:00,27.4,16.0,30.13,SW,225,0.0,0.0,62,0.00,,,0.01,WUHU216HW,2013-03-15 01:54:00,
2013-03-14 21:59:00,27.4,16.0,30.13,West,270,0.0,0.0,62,0.00,,,0.01,WUHU216HW,2013-03-15 01:59:00,
2013-03-14 22:04:00,27.0,15.7,30.13,WSW,248,0.0,0.0,62,0.00,,,0.01,WUHU216HW,2013-03-15 02:04:00,
2013-03-14 22:09:00,27.2,15.8,30.13,West,270,0.0,0.0,62,0.00,,,0.01,WUHU216HW,2013-03-15 02:09:00,
2013-03-14 22:14:00,27.0,15.3,30.13,West,270,0.0,0.0,61,0.00,,,0.01,WUHU216HW,2013-03-15 02:14:00,
2013-03-14 22:19:00,27.0,15.7,30.13,WSW,248,0.0,0.0,62,0.00,,,0.01,WUHU216HW,2013-03-15 02:19:00,
2013-03-14 22:24:00,27.0,15.7,30.13,WSW,248,0.0,0.0,62,0.00,,,0.01,WUHU216HW,2013-03-15 02:24:00,
2013-03-14 22:29:00,27.0,15.7,30.13,WSW,248,0.0,0.0,62,0.00,,,0.01,WUHU216HW,2013-03-15 02:29:00,
2013-03-14 22:34:00,27.0,15.7,30.12,WSW,248,0.0,0.0,62,0.00,,,0.01,WUHU216HW,2013-03-15 02:34:00,
2013-03-14 22:39:00,27.0,15.7,30.12,West,270,0.0,0.0,62,0.00,,,0.01,WUHU216HW,2013-03-15 02:39:00,
2013-03-14 22:44:00,27.0,15.7,30.12,SW,225,0.0,0.0,62,0.00,,,0.01,WUHU216HW,2013-03-15 02:44:00,
2013-03-14 22:49:00,27.2,15.8,30.12,WSW,248,0.0,0.0,62,0.00,,,0.01,WUHU216HW,2013-03-15 02:49:00,
2013-03-14 22:54:00,27.2,15.8,30.11,WSW,248,0.0,0.0,62,0.00,,,0.01,WUHU216HW,2013-03-15 02:54:00,
2013-03-14 22:59:00,27.4,16.0,30.11,WNW,293,0.0,0.0,62,0.00,,,0.01,WUHU216HW,2013-03-15 02:59:00,
2013-03-14 23:04:00,27.4,16.4,30.11,West,270,0.0,0.0,63,0.00,,,0.01,WUHU216HW,2013-03-15 03:04:00,
2013-03-14 23:09:00,27.7,17.1,30.11,WSW,248,0.0,0.0,64,0.00,,,0.01,WUHU216HW,2013-03-15 03:09:00,
2013-03-14 23:14:00,27.7,17.1,30.11,WSW,248,0.0,0.0,64,0.00,,,0.01,WUHU216HW,2013-03-15 03:14:00,
2013-03-14 23:19:00,27.7,17.5,30.11,WSW,248,0.0,0.0,65,0.00,,,0.01,WUHU216HW,2013-03-15 03:19:00,
2013-03-14 23:24:00,27.9,17.6,30.11,WSW,248,0.0,0.0,65,0.00,,,0.01,WUHU216HW,2013-03-15 03:24:00,
2013-03-14 23:29:00,28.1,17.8,30.11,WSW,248,0.0,0.0,65,0.00,,,0.01,WUHU216HW,2013-03-15 03:29:00,
2013-03-14 23:34:00,27.9,17.6,30.11,SSW,203,0.0,0.0,65,0.00,,,0.01,WUHU216HW,2013-03-15 03:34:00,
2013-03-14 23:39:00,27.9,17.6,30.10,WSW,248,0.0,0.0,65,0.00,,,0.01,WUHU216HW,2013-03-15 03:39:00,
2013-03-14 23:44:00,27.7,17.8,30.10,SW,225,0.0,0.0,66,0.00,,,0.01,WUHU216HW,2013-03-15 03:44:00,
2013-03-14 23:49:00,27.5,17.6,30.10,WSW,248,0.0,0.0,66,0.00,,,0.01,WUHU216HW,2013-03-15 03:49:00,
2013-03-14 23:54:00,27.5,18.0,30.10,WSW,248,0.0,0.0,67,0.00,,,0.01,WUHU216HW,2013-03-15 03:54:00,
2013-03-14 23:59:00,27.4,17.8,30.10,WNW,293,0.0,0.0,67,0.00,,,0.01,WUHU216HW,2013-03-15 03:59:00,